Time;durP1;ratioP1;P1;durP2;ratioP2;P2;SDS_P1;SDS_P2;PMS_P1;PMS_P2;Temp;Humidity;BMP_temperature;BMP_pressure;BME280_temperature;BME280_humidity;BME280_pressure;Samples;Min_cycle;Max_cycle;Signal;HPM_P1;HPM_P2
2021/09/20 04:41:32;;;;;;;2.70;2.50;;;;;;;9.16;91.68;99508.66;1774893;79;21201;-37
2021/09/20 04:43:59;;;;;;;2.77;2.52;;;;;;;9.17;91.83;99510.39;1758369;80;21056;-37
2021/09/20 04:46:26;;;;;;;3.67;2.40;;;;;;;9.20;91.31;99506.88;1752608;79;21072;-34
2021/09/20 04:48:54;;;;;;;2.22;2.02;;;;;;;9.23;90.58;99506.88;1763036;80;21136;-33
2021/09/20 04:51:21;;;;;;;2.70;2.20;;;;;;;9.23;89.32;99512.09;1715284;83;21036;-33
2021/09/20 04:53:48;;;;;;;8.48;3.05;;;;;;;9.21;89.07;99506.86;1750270;81;21107;-35
2021/09/20 04:56:16;;;;;;;7.78;3.90;;;;;;;9.20;87.56;99509.05;1771006;80;21014;-33
2021/09/20 04:58:42;;;;;;;2.35;2.15;;;;;;;9.20;87.37;99512.10;1764025;79;21599;-39
2021/09/20 05:01:09;;;;;;;1.40;1.30;;;;;;;9.18;86.85;99516.03;1770781;79;21013;-39
2021/09/20 05:03:36;;;;;;;4.35;1.40;;;;;;;9.18;87.11;99515.17;1759371;80;21095;-39
2021/09/20 05:06:03;;;;;;;1.47;1.15;;;;;;;9.19;86.71;99516.90;1773636;79;21497;-39
2021/09/20 05:08:32;;;;;;;0.70;0.70;;;;;;;9.21;86.33;99520.35;1761985;79;21467;-39
2021/09/20 05:11:00;;;;;;;2.20;0.98;;;;;;;9.23;85.96;99526.45;1760807;79;21343;-39
2021/09/20 05:13:29;;;;;;;1.05;1.00;;;;;;;9.24;85.48;99521.21;1761864;79;21006;-34
2021/09/20 05:15:55;;;;;;;3.15;0.88;;;;;;;9.28;85.50;99519.45;1747020;80;21091;-33
2021/09/20 05:18:24;;;;;;;0.90;0.90;;;;;;;9.32;84.59;99530.28;1764977;79;21462;-33
2021/09/20 05:20:51;;;;;;;0.72;0.72;;;;;;;9.37;84.63;99525.03;1747687;81;21482;-33
2021/09/20 05:23:21;;;;;;;0.90;0.90;;;;;;;9.45;83.94;99517.59;1770458;79;21613;-33
2021/09/20 05:25:48;;;;;;;0.80;0.75;;;;;;;9.53;83.10;99526.66;1774931;79;21037;-39
2021/09/20 05:28:14;;;;;;;0.62;0.62;;;;;;;9.61;82.54;99530.06;1761626;79;21656;-33
2021/09/20 05:30:41;;;;;;;0.70;0.70;;;;;;;9.68;81.66;99525.20;1763448;79;21005;-39
2021/09/20 05:33:08;;;;;;;0.45;0.45;;;;;;;9.74;82.03;99524.28;1755099;80;21433;-39
2021/09/20 05:35:35;;;;;;;0.95;0.60;;;;;;;9.81;81.40;99524.23;1768435;79;21004;-39
2021/09/20 05:38:03;;;;;;;0.68;0.68;;;;;;;9.90;81.83;99525.02;1761187;80;20977;-33
2021/09/20 05:40:29;;;;;;;1.75;0.60;;;;;;;9.97;81.30;99535.83;1772990;79;20988;-34
2021/09/20 05:42:57;;;;;;;0.50;0.50;;;;;;;10.01;79.93;99535.80;1777305;78;21048;-34
2021/09/20 05:45:24;;;;;;;1.12;0.65;;;;;;;10.06;79.66;99530.09;1768708;78;21516;-34
2021/09/20 05:47:52;;;;;;;1.75;0.75;;;;;;;10.11;79.63;99523.52;1772490;78;20985;-34
2021/09/20 05:50:21;;;;;;;2.47;0.72;;;;;;;10.19;80.16;99526.90;1771571;79;21085;-32
2021/09/20 05:52:48;;;;;;;0.70;0.70;;;;;;;10.27;79.06;99541.25;1766256;80;21014;-33
2021/09/20 05:55:15;;;;;;;0.57;0.55;;;;;;;10.28;78.99;99525.54;1769856;80;21911;-38
2021/09/20 05:57:43;;;;;;;3.33;0.68;;;;;;;10.30;77.67;99532.91;1777837;80;21000;-38
2021/09/20 06:00:11;;;;;;;0.53;0.45;;;;;;;10.27;77.92;99534.72;1766660;80;21000;-35
2021/09/20 06:02:39;;;;;;;1.02;0.70;;;;;;;10.22;78.13;99544.32;1777069;79;20953;-34
2021/09/20 06:05:08;;;;;;;0.68;0.60;;;;;;;10.16;78.35;99537.84;1777622;79;21500;-40
2021/09/20 06:07:36;;;;;;;0.47;0.47;;;;;;;10.10;78.77;99542.25;1779075;78;21386;-40
2021/09/20 06:10:06;;;;;;;1.02;0.60;;;;;;;10.09;79.66;99542.28;1769148;78;21471;-40
2021/09/20 06:12:33;;;;;;;2.83;0.72;;;;;;;10.10;79.35;99541.39;1780030;78;21367;-40
2021/09/20 06:15:02;;;;;;;2.60;0.88;;;;;;;10.09;79.85;99544.89;1772923;79;21125;-34
2021/09/20 06:17:30;;;;;;;3.08;0.80;;;;;;;10.10;79.88;99550.53;1772867;79;21052;-35
2021/09/20 06:19:57;;;;;;;0.88;0.68;;;;;;;10.08;80.05;99566.21;1771603;78;21072;-38
2021/09/20 06:22:26;;;;;;;2.27;0.70;;;;;;;10.08;80.59;99569.27;1745846;80;21413;-39
2021/09/20 06:24:56;;;;;;;0.80;0.80;;;;;;;10.06;80.43;99553.61;1729554;80;21569;-39
2021/09/20 06:27:46;;;;;;;0.88;0.70;;;;;;;10.07;80.32;99555.78;1720074;81;21467;-40
2021/09/20 06:31:50;;;;;;;2.77;0.90;;;;;;;10.07;79.91;99561.01;1780300;78;21195;-39
2021/09/20 06:35:23;;;;;;;1.47;1.20;;;;;;;10.06;80.68;99559.28;1766339;79;21089;-34
2021/09/20 06:38:27;;;;;;;2.25;0.95;;;;;;;10.07;80.15;99577.55;1762253;78;21017;-33
2021/09/20 06:41:48;;;;;;;0.80;0.80;;;;;;;10.07;79.60;99565.79;1765687;78;21618;-39
2021/09/20 06:44:41;;;;;;;0.93;0.90;;;;;;;10.05;80.41;99580.63;1771979;79;21021;-39
2021/09/20 06:47:09;;;;;;;0.88;0.80;;;;;;;10.05;79.92;99572.79;1765924;78;21458;-40
2021/09/20 06:49:36;;;;;;;0.70;0.68;;;;;;;10.07;79.88;99572.77;1763944;79;21097;-39
2021/09/20 06:52:03;;;;;;;2.15;1.12;;;;;;;10.07;79.99;99575.38;1766070;78;21619;-39
2021/09/20 06:54:30;;;;;;;1.27;1.00;;;;;;;10.08;79.89;99573.19;1771362;78;21042;-39
2021/09/20 06:56:57;;;;;;;1.05;0.72;;;;;;;10.08;79.90;99591.48;1771202;79;20993;-39
2021/09/20 06:59:24;;;;;;;1.12;0.80;;;;;;;10.08;79.05;99585.81;1768878;78;21026;-39
2021/09/20 07:01:53;;;;;;;0.82;0.82;;;;;;;10.06;79.35;99595.87;1774690;79;21025;-39
2021/09/20 07:04:20;;;;;;;1.05;0.75;;;;;;;10.05;80.01;99595.45;1750606;80;20981;-40
2021/09/20 07:06:47;;;;;;;1.67;0.80;;;;;;;10.08;79.94;99598.88;1772958;79;21061;-39
2021/09/20 07:09:14;;;;;;;1.62;1.00;;;;;;;10.11;79.78;99600.17;1778976;78;21095;-39
2021/09/20 07:11:43;;;;;;;0.72;0.72;;;;;;;10.13;79.51;99594.92;1774939;78;21048;-39
2021/09/20 07:14:10;;;;;;;0.65;0.65;;;;;;;10.16;79.09;99605.37;1770055;78;21015;-40
2021/09/20 07:16:37;;;;;;;0.50;0.50;;;;;;;10.18;79.00;99606.20;1769607;80;20997;-34
2021/09/20 07:19:05;;;;;;;0.72;0.70;;;;;;;10.20;78.66;99600.95;1770611;79;21519;-33
2021/09/20 07:21:32;;;;;;;1.17;0.70;;;;;;;10.23;79.02;99606.17;1764562;79;21020;-34
2021/09/20 07:24:05;;;;;;;4.37;0.90;;;;;;;10.25;79.21;99599.20;1764083;79;21033;-33
2021/09/20 07:26:34;;;;;;;1.17;0.82;;;;;;;10.29;78.91;99612.23;1770281;79;20996;-33
2021/09/20 07:29:06;;;;;;;0.88;0.85;;;;;;;10.31;78.42;99610.46;1767432;78;21838;-34
2021/09/20 07:31:47;;;;;;;2.60;0.90;;;;;;;10.33;78.66;99607.41;1767365;79;20989;-40
2021/09/20 07:34:13;;;;;;;4.17;0.80;;;;;;;10.33;77.96;99603.49;1768213;79;21075;-40
2021/09/20 07:36:41;;;;;;;1.80;0.90;;;;;;;10.35;77.91;99606.08;1767417;79;20997;-39
2021/09/20 07:39:08;;;;;;;0.70;0.50;;;;;;;10.34;76.87;99611.76;1768316;80;21095;-34
2021/09/20 07:41:35;;;;;;;2.37;0.70;;;;;;;10.34;77.46;99601.30;1753399;79;21507;-34
2021/09/20 07:44:04;;;;;;;6.05;4.35;;;;;;;10.34;77.35;99606.53;1748130;79;21466;-40
2021/09/20 07:46:32;;;;;;;1.87;1.67;;;;;;;10.36;77.81;99606.06;1758801;79;21109;-40
2021/09/20 07:49:00;;;;;;;0.85;0.80;;;;;;;10.42;78.17;99606.88;1763024;79;21034;-39
2021/09/20 07:51:29;;;;;;;1.25;1.15;;;;;;;10.46;78.30;99617.75;1753107;80;21653;-34
2021/09/20 07:53:57;;;;;;;3.60;1.35;;;;;;;10.48;77.23;99619.45;1772588;79;21072;-36
2021/09/20 07:56:27;;;;;;;0.95;0.60;;;;;;;10.51;76.97;99621.19;1759463;79;20997;-40
2021/09/20 07:58:55;;;;;;;0.80;0.80;;;;;;;10.52;76.72;99616.38;1761216;79;21493;-34
2021/09/20 08:01:23;;;;;;;1.95;1.30;;;;;;;10.52;76.43;99622.91;1719903;81;21610;-34
2021/09/20 08:03:49;;;;;;;1.00;1.00;;;;;;;10.52;76.60;99627.70;1766306;79;21508;-34
2021/09/20 08:06:17;;;;;;;3.05;1.00;;;;;;;10.53;75.86;99625.50;1766398;79;21825;-35
2021/09/20 08:08:51;;;;;;;1.00;0.90;;;;;;;10.52;76.39;99619.85;1743730;79;21658;-35
2021/09/20 08:16:35;;;;;;;1.42;0.90;;;;;;;10.53;76.52;99620.27;1755553;79;21623;-33
2021/09/20 08:20:03;;;;;;;1.12;0.90;;;;;;;10.56;76.35;99632.03;1762282;79;21464;-33
2021/09/20 08:23:56;;;;;;;1.07;0.98;;;;;;;10.60;77.61;99626.30;1759869;79;21071;-39
2021/09/20 08:27:29;;;;;;;3.30;1.07;;;;;;;10.65;76.73;99633.22;1750177;79;20978;-39
2021/09/20 08:37:15;;;;;;;4.12;1.32;;;;;;;10.68;77.27;99638.02;1765167;79;21075;-39
2021/09/20 08:39:42;;;;;;;1.25;1.15;;;;;;;10.72;76.46;99625.30;1746015;78;21048;-33
2021/09/20 08:42:09;;;;;;;2.22;1.70;;;;;;;10.77;75.31;99630.05;1761019;80;20988;-33
2021/09/20 08:44:35;;;;;;;2.67;1.98;;;;;;;10.80;75.56;99631.33;1765576;79;21481;-33
2021/09/20 08:47:03;;;;;;;8.13;3.55;;;;;;;10.83;76.35;99636.52;1729218;82;21033;-34
2021/09/20 08:49:31;;;;;;;1.35;1.25;;;;;;;10.86;76.59;99635.19;1760959;80;22082;-40
2021/09/20 08:51:59;;;;;;;1.05;0.98;;;;;;;10.91;76.37;99642.09;1731964;80;21005;-40
2021/09/20 08:54:26;;;;;;;3.55;1.05;;;;;;;10.93;76.01;99653.41;1762341;79;21024;-34
2021/09/20 08:56:53;;;;;;;1.95;1.00;;;;;;;10.95;75.11;99661.23;1758722;79;20994;-39
2021/09/20 08:59:21;;;;;;;1.17;0.95;;;;;;;10.91;74.77;99650.39;1772224;79;21021;-39
2021/09/20 09:01:52;;;;;;;0.75;0.75;;;;;;;10.88;75.13;99650.41;1765348;79;21403;-39
2021/09/20 09:04:43;;;;;;;2.12;1.10;;;;;;;10.88;75.71;99646.48;1763734;80;21181;-34
2021/09/20 09:07:48;;;;;;;1.42;1.27;;;;;;;10.89;75.93;99646.47;1764815;79;21428;-34
2021/09/20 09:27:10;;;;;;;2.47;1.60;;;;;;;10.92;75.42;99662.14;1758176;79;21381;-35
2021/09/20 09:31:15;;;;;;;1.67;1.57;;;;;;;10.91;75.34;99670.02;1755756;80;21825;-40
2021/09/20 09:33:55;;;;;;;1.40;1.30;;;;;;;10.90;75.44;99668.27;1750190;79;21044;-33
2021/09/20 09:36:31;;;;;;;2.22;1.30;;;;;;;10.88;75.66;99669.59;1737498;80;21579;-33
2021/09/20 09:39:01;;;;;;;1.70;1.10;;;;;;;10.90;75.43;99665.64;1725735;80;21097;-32
2021/09/20 09:41:36;;;;;;;2.45;1.62;;;;;;;10.97;76.12;99678.25;1764628;79;21066;-34
2021/09/20 09:44:06;;;;;;;1.30;1.20;;;;;;;11.04;76.46;99670.30;1766349;79;21072;-40
2021/09/20 09:46:44;;;;;;;1.17;1.07;;;;;;;11.14;75.73;99662.77;1725358;81;21006;-34
2021/09/20 09:49:20;;;;;;;2.65;1.02;;;;;;;11.25;75.50;99661.33;1759973;79;21128;-40
2021/09/20 09:52:09;;;;;;;0.93;0.93;;;;;;;11.34;73.72;99668.19;1759181;79;21060;-34
2021/09/20 09:54:38;;;;;;;2.35;1.12;;;;;;;11.41;73.59;99669.83;1763355;79;21153;-40
2021/09/20 09:57:14;;;;;;;0.98;0.98;;;;;;;11.49;72.74;99671.05;1761529;79;21592;-41
2021/09/20 09:59:43;;;;;;;2.33;1.35;;;;;;;11.56;72.57;99667.45;1755658;79;21081;-33
2021/09/20 10:02:30;;;;;;;1.92;1.00;;;;;;;11.64;71.96;99666.89;1742798;79;21538;-41
2021/09/20 10:05:19;;;;;;;1.52;1.25;;;;;;;11.70;72.26;99667.66;1764325;79;20998;-40
2021/09/20 10:07:48;;;;;;;1.40;1.30;;;;;;;11.79;72.51;99668.44;1765363;79;21512;-40
2021/09/20 10:10:25;;;;;;;1.35;1.10;;;;;;;11.81;71.23;99677.13;1762341;79;21026;-34
2021/09/20 10:13:08;;;;;;;1.67;1.57;;;;;;;11.72;70.97;99670.29;1761782;79;21668;-35
2021/09/20 10:16:19;;;;;;;1.52;1.17;;;;;;;11.67;71.78;99667.73;1766206;79;21519;-35
2021/09/20 10:19:58;;;;;;;1.35;1.12;;;;;;;11.70;71.17;99678.59;1749348;79;21014;-34
2021/09/20 10:27:59;;;;;;;1.10;1.00;;;;;;;11.93;69.76;99667.80;1749933;80;20984;-35
2021/09/20 10:35:20;;;;;;;1.27;0.98;;;;;;;11.81;69.51;99678.44;1749977;79;21470;-35
2021/09/20 10:38:13;;;;;;;0.90;0.90;;;;;;;11.77;70.27;99681.58;1767546;79;20977;-35
2021/09/20 10:41:14;;;;;;;1.75;1.17;;;;;;;11.77;69.98;99684.20;1759564;79;20991;-41
2021/09/20 10:43:44;;;;;;;1.75;1.00;;;;;;;11.78;70.56;99668.89;1759745;79;21443;-41
2021/09/20 10:46:25;;;;;;;1.35;1.20;;;;;;;11.85;71.80;99673.17;1764758;79;21386;-41
2021/09/20 10:48:54;;;;;;;1.12;1.05;;;;;;;11.93;71.33;99673.91;1754129;79;21089;-39
2021/09/20 10:51:27;;;;;;;1.47;0.95;;;;;;;11.96;70.30;99667.77;1768846;79;21061;-39
2021/09/20 10:54:15;;;;;;;1.20;1.10;;;;;;;12.01;70.13;99665.95;1756722;79;21526;-39
2021/09/20 10:56:47;;;;;;;1.32;1.22;;;;;;;12.06;69.71;99682.89;1761679;79;20999;-39
2021/09/20 10:59:15;;;;;;;1.52;1.40;;;;;;;12.02;69.42;99678.16;1767480;79;21607;-38
2021/09/20 11:02:00;;;;;;;1.35;0.95;;;;;;;12.01;69.76;99667.26;1765561;79;20992;-38
2021/09/20 11:08:38;;;;;;;1.20;1.10;;;;;;;12.03;70.29;99681.20;1765372;78;21013;-39
2021/09/20 11:11:41;;;;;;;2.30;1.42;;;;;;;12.04;69.89;99682.92;1726531;81;21050;-33
2021/09/20 11:14:21;;;;;;;1.70;1.60;;;;;;;12.04;70.50;99675.51;1723210;82;21042;-33
2021/09/20 11:17:01;;;;;;;1.37;1.27;;;;;;;12.04;70.98;99680.30;1710244;82;21551;-34
2021/09/20 11:19:33;;;;;;;1.02;1.00;;;;;;;12.03;70.95;99674.64;1730792;80;21042;-33
2021/09/20 11:22:14;;;;;;;2.35;1.12;;;;;;;12.07;70.09;99690.76;1753735;79;21720;-33
2021/09/20 11:25:03;;;;;;;1.37;1.27;;;;;;;12.08;69.22;99689.86;1751303;80;20978;-33
2021/09/20 11:27:35;;;;;;;1.25;1.05;;;;;;;12.10;69.57;99676.72;1756749;80;20989;-35
2021/09/20 11:30:12;;;;;;;1.30;1.20;;;;;;;12.11;69.43;99678.00;1710106;82;21518;-39
2021/09/20 11:32:56;;;;;;;1.95;1.47;;;;;;;12.12;69.59;99695.94;1731535;82;21043;-39
2021/09/20 11:35:27;;;;;;;2.05;1.30;;;;;;;12.06;69.57;99679.86;1726953;80;21699;-39
2021/09/20 11:37:56;;;;;;;1.92;1.82;;;;;;;12.05;70.56;99678.55;1757299;79;21840;-39
2021/09/20 11:40:25;;;;;;;4.97;1.10;;;;;;;12.08;70.21;99681.14;1768119;79;21020;-34
2021/09/20 11:42:55;;;;;;;4.28;2.92;;;;;;;12.15;69.65;99674.89;1743754;79;20997;-33
2021/09/20 11:45:30;;;;;;;8.25;3.75;;;;;;;12.25;69.79;99677.80;1763067;80;21033;-35
2021/09/20 11:48:01;;;;;;;3.22;2.33;;;;;;;12.32;68.79;99676.80;1757729;79;20985;-33
2021/09/20 11:50:31;;;;;;;1.15;1.05;;;;;;;12.37;68.78;99682.83;1765419;80;20990;-33
2021/09/20 11:53:12;;;;;;;2.60;2.25;;;;;;;12.40;68.48;99689.77;1762245;79;22166;-33
2021/09/20 11:55:44;;;;;;;2.15;1.72;;;;;;;12.39;68.93;99691.53;1759370;79;21065;-34
2021/09/20 11:58:13;;;;;;;1.70;1.20;;;;;;;12.40;68.51;99680.59;1758887;79;21472;-33
2021/09/20 12:15:00;;;;;;;2.98;1.00;;;;;;;12.70;66.60;99689.70;1782494;80;23535;-32
2021/09/20 12:17:46;;;;;;;1.20;1.10;;;;;;;12.63;66.83;99682.36;1762369;80;21028;-38
2021/09/20 12:20:15;;;;;;;2.08;1.10;;;;;;;12.60;67.22;99678.95;1756146;79;20967;-38
2021/09/20 12:22:45;;;;;;;2.33;1.62;;;;;;;12.65;67.70;99682.36;1782796;80;21083;-38
2021/09/20 12:25:29;;;;;;;1.40;1.30;;;;;;;12.73;67.34;99683.93;1760466;80;20952;-33
2021/09/20 12:27:58;;;;;;;2.15;1.35;;;;;;;12.77;66.65;99672.49;1778175;80;21039;-33
2021/09/20 12:30:27;;;;;;;1.15;1.05;;;;;;;12.77;65.77;99672.49;1790372;79;20963;-33
2021/09/20 12:33:11;;;;;;;0.88;0.88;;;;;;;12.75;65.12;99670.77;1790766;80;20993;-34
2021/09/20 12:35:40;;;;;;;1.15;1.05;;;;;;;12.72;65.29;99673.02;1783195;79;21011;-33
2021/09/20 12:38:30;;;;;;;1.05;1.05;;;;;;;12.69;65.50;99684.88;1783151;80;21701;-33
2021/09/20 12:41:11;;;;;;;1.12;1.00;;;;;;;12.68;66.70;99672.65;1772133;80;20961;-34
2021/09/20 12:43:38;;;;;;;1.27;0.82;;;;;;;12.71;66.76;99674.38;1746879;82;21626;-33
2021/09/20 12:46:18;;;;;;;1.17;1.10;;;;;;;12.73;65.89;99681.30;1753834;82;20969;-33
2021/09/20 12:48:52;;;;;;;1.20;1.10;;;;;;;12.73;65.87;99676.51;1750754;82;21044;-33
2021/09/20 12:51:19;;;;;;;1.55;1.25;;;;;;;12.72;66.09;99680.89;1762549;80;21421;-33
2021/09/20 12:53:57;;;;;;;1.55;1.00;;;;;;;12.75;66.19;99680.82;1768502;81;21477;-39
2021/09/20 12:56:30;;;;;;;1.85;0.80;;;;;;;12.79;65.69;99670.69;1752243;81;21491;-39
2021/09/20 12:59:18;;;;;;;1.20;0.90;;;;;;;12.84;65.90;99675.00;1755008;81;21047;-39
2021/09/20 13:01:55;;;;;;;1.47;0.98;;;;;;;12.86;65.82;99675.82;1768927;81;21039;-34
2021/09/20 13:04:35;;;;;;;1.85;1.10;;;;;;;12.91;66.14;99689.73;1762056;80;21632;-33
2021/09/20 13:07:11;;;;;;;1.00;1.00;;;;;;;12.95;65.02;99672.59;1747713;81;21032;-33
2021/09/20 13:09:59;;;;;;;0.70;0.70;;;;;;;12.99;64.88;99669.02;1743897;81;21538;-39
2021/09/20 13:12:39;;;;;;;1.10;0.85;;;;;;;13.02;65.25;99671.56;1763999;81;21020;-39
2021/09/20 13:15:19;;;;;;;1.05;0.82;;;;;;;13.04;65.04;99676.36;1736053;82;21010;-39
2021/09/20 13:17:53;;;;;;;0.78;0.75;;;;;;;13.08;65.07;99664.01;1736063;81;21114;-39
2021/09/20 13:20:34;;;;;;;1.85;1.32;;;;;;;13.12;64.95;99671.39;1721061;82;21031;-33
2021/09/20 13:23:05;;;;;;;1.25;0.90;;;;;;;13.16;64.82;99665.16;1737110;81;21059;-34
2021/09/20 13:25:52;;;;;;;0.85;0.85;;;;;;;13.17;65.23;99673.48;1747059;81;21023;-33
2021/09/20 13:28:36;;;;;;;0.80;0.75;;;;;;;13.16;64.60;99669.99;1733984;82;21146;-39
2021/09/20 13:31:05;;;;;;;1.60;1.00;;;;;;;13.12;64.69;99670.94;1743357;82;21533;-39
2021/09/20 13:33:33;;;;;;;0.93;0.93;;;;;;;13.09;64.70;99664.42;1735208;82;21122;-32
2021/09/20 13:36:11;;;;;;;1.15;1.05;;;;;;;13.03;64.84;99676.36;1734010;81;21093;-36
2021/09/20 13:38:40;;;;;;;2.33;0.90;;;;;;;12.99;65.43;99674.27;1772443;81;21067;-31
2021/09/20 13:41:12;;;;;;;0.70;0.70;;;;;;;12.97;65.79;99676.03;1740677;81;21042;-35
2021/09/20 13:43:41;;;;;;;0.85;0.85;;;;;;;12.96;66.03;99682.64;1745948;81;21099;-33
2021/09/20 13:46:10;;;;;;;2.00;0.93;;;;;;;12.96;66.25;99690.52;1760953;81;20988;-37
2021/09/20 13:48:38;;;;;;;1.45;1.20;;;;;;;12.95;65.59;99688.78;1735613;82;21074;-34
2021/09/20 13:51:04;;;;;;;1.40;1.20;;;;;;;12.93;65.60;99687.52;1733648;81;21073;-34
2021/09/20 13:53:33;;;;;;;1.22;0.90;;;;;;;12.92;66.66;99687.06;1737317;81;21073;-38
2021/09/20 13:55:59;;;;;;;0.88;0.78;;;;;;;12.93;66.28;99686.62;1755011;81;20967;-38
2021/09/20 13:58:26;;;;;;;3.05;1.72;;;;;;;12.91;65.92;99689.28;1741511;81;21070;-33
2021/09/20 14:00:53;;;;;;;2.25;0.90;;;;;;;12.89;66.27;99693.70;1728695;82;20975;-38
2021/09/20 14:03:21;;;;;;;2.15;1.40;;;;;;;12.86;65.75;99693.75;1743280;81;21087;-38
2021/09/20 14:05:50;;;;;;;1.95;1.20;;;;;;;12.85;66.08;99692.47;1743470;82;21487;-33
2021/09/20 14:08:17;;;;;;;3.62;0.98;;;;;;;12.84;66.80;99693.38;1742133;81;21590;-33
2021/09/20 14:10:46;;;;;;;0.72;0.72;;;;;;;12.84;65.90;99690.75;1729060;82;21033;-33
2021/09/20 14:13:13;;;;;;;2.87;1.10;;;;;;;12.84;66.16;99694.23;1767868;79;21080;-39
2021/09/20 14:15:42;;;;;;;3.67;0.90;;;;;;;12.84;66.49;99686.81;1749482;81;21537;-37
2021/09/20 14:18:09;;;;;;;1.20;0.93;;;;;;;12.86;66.65;99694.20;1747454;81;21103;-38
2021/09/20 14:20:38;;;;;;;0.90;0.90;;;;;;;12.87;66.96;99690.25;1768510;81;21013;-38
2021/09/20 14:23:06;;;;;;;0.80;0.80;;;;;;;12.90;66.84;99687.55;1768105;81;21087;-34
2021/09/20 14:25:36;;;;;;;1.80;0.70;;;;;;;12.93;67.25;99684.89;1771581;81;20984;-34
2021/09/20 14:28:08;;;;;;;0.93;0.90;;;;;;;12.98;66.76;99695.27;1773379;81;21047;-39
2021/09/20 14:30:37;;;;;;;0.90;0.90;;;;;;;12.99;66.77;99695.72;1774432;81;21020;-33
2021/09/20 14:33:04;;;;;;;1.22;0.70;;;;;;;13.01;66.09;99692.16;1773883;80;21071;-33
2021/09/20 14:35:30;;;;;;;1.02;0.98;;;;;;;13.02;66.50;99695.64;1769865;81;21055;-33
2021/09/20 14:37:57;;;;;;;0.62;0.62;;;;;;;13.03;66.48;99706.11;1771351;80;21554;-39
2021/09/20 14:40:27;;;;;;;1.02;0.70;;;;;;;13.03;66.27;99701.31;1773971;81;21028;-39
2021/09/20 14:42:54;;;;;;;1.10;1.00;;;;;;;13.03;66.89;99705.25;1773905;81;21103;-33
2021/09/20 14:45:22;;;;;;;3.77;1.72;;;;;;;13.02;66.10;99711.40;1774332;81;21475;-33
2021/09/20 14:47:49;;;;;;;2.45;1.20;;;;;;;13.00;65.92;99707.95;1774618;79;21000;-33
2021/09/20 14:50:19;;;;;;;1.32;1.10;;;;;;;12.98;65.53;99714.52;1773633;81;20999;-34
2021/09/20 14:52:47;;;;;;;1.62;1.12;;;;;;;12.92;65.80;99719.89;1773945;81;21035;-39
2021/09/20 14:55:15;;;;;;;2.35;0.98;;;;;;;12.87;65.77;99723.07;1773773;81;21515;-33
2021/09/20 14:57:42;;;;;;;1.27;1.15;;;;;;;12.84;66.53;99728.81;1773972;79;21047;-39
2021/09/20 15:00:11;;;;;;;1.02;1.00;;;;;;;12.77;66.82;99730.69;1773848;81;20999;-38
2021/09/20 15:02:38;;;;;;;2.02;1.25;;;;;;;12.75;66.81;99725.44;1774113;79;21088;-39
2021/09/20 15:05:06;;;;;;;2.00;1.20;;;;;;;12.72;67.05;99734.70;1774000;81;21496;-33
2021/09/20 15:07:32;;;;;;;1.45;1.35;;;;;;;12.72;67.37;99741.71;1774367;81;21024;-38
2021/09/20 15:09:59;;;;;;;5.03;1.72;;;;;;;12.72;67.69;99738.64;1773553;81;21547;-34
